createdAt,value
2022-08-08T00:00:55.558Z,48.15
2022-08-08T00:05:10.891Z,48.46
2022-08-08T00:10:18.079Z,48.59
2022-08-08T00:15:57.182Z,48.79
2022-08-08T00:20:32.708Z,49.05
2022-08-08T00:25:46.379Z,49.00
2022-08-08T00:31:00.702Z,49.01
2022-08-08T00:35:54.386Z,49.00
2022-08-08T00:41:12.382Z,48.87
2022-08-08T00:46:16.593Z,49.03
2022-08-08T00:51:18.107Z,49.13
2022-08-08T00:56:23.917Z,49.09
2022-08-08T01:01:37.967Z,49.15
2022-08-08T01:06:37.646Z,49.05
2022-08-08T01:11:44.864Z,49.22
2022-08-08T01:16:52.089Z,49.16
2022-08-08T01:22:09.912Z,49.16
2022-08-08T01:27:10.637Z,49.25
2022-08-08T01:32:15.776Z,49.45
2022-08-08T01:37:21.887Z,49.28
2022-08-08T01:42:35.783Z,49.32
2022-08-08T01:48:14.499Z,49.26
2022-08-08T01:52:56.032Z,49.13
2022-08-08T01:58:13.342Z,49.03
2022-08-08T02:02:57.555Z,49.00
2022-08-08T02:08:04.796Z,48.93
2022-08-08T02:13:53.336Z,48.92
2022-08-08T02:18:19.211Z,49.08
2022-08-08T02:23:31.658Z,49.08
2022-08-08T02:28:35.027Z,48.99
2022-08-08T02:33:41.427Z,48.89
2022-08-08T02:38:49.215Z,48.80
2022-08-08T02:44:44.853Z,48.71
2022-08-08T02:49:02.447Z,48.63
2022-08-08T02:54:09.711Z,48.82
2022-08-08T02:59:25.959Z,48.73
2022-08-08T03:05:05.204Z,48.79
2022-08-08T03:09:31.441Z,48.92
2022-08-08T03:15:59.702Z,48.87
2022-08-08T03:19:50.878Z,48.98
2022-08-08T03:24:57.043Z,49.15
2022-08-08T03:30:00.202Z,49.17
2022-08-08T03:35:09.547Z,49.18
2022-08-08T03:40:30.203Z,49.22
2022-08-08T03:46:03.033Z,49.18
2022-08-08T03:50:29.134Z,49.16
2022-08-08T03:55:57.259Z,49.15
2022-08-08T04:01:02.657Z,49.21
2022-08-08T04:05:50.710Z,49.03
2022-08-08T04:11:00.047Z,49.02
2022-08-08T04:16:05.633Z,48.92
2022-08-08T04:21:12.356Z,48.95
2022-08-08T04:26:19.711Z,48.95
2022-08-08T04:31:56.650Z,48.93
2022-08-08T04:36:34.023Z,48.92
2022-08-08T04:41:43.197Z,48.97
2022-08-08T04:46:52.504Z,49.01
2022-08-08T04:51:57.890Z,49.08
2022-08-08T04:57:04.863Z,49.19
2022-08-08T05:02:13.509Z,49.32
2022-08-08T05:07:19.252Z,49.38
2022-08-08T05:12:28.922Z,49.37
2022-08-08T05:17:53.668Z,50.31
2022-08-08T05:22:40.871Z,50.85
2022-08-08T05:27:48.071Z,51.56
2022-08-08T05:32:55.222Z,51.79
2022-08-08T05:38:02.414Z,51.74
2022-08-08T05:43:40.021Z,52.00
2022-08-08T05:48:16.899Z,51.91
2022-08-08T05:54:26.265Z,52.58
2022-08-08T05:58:33.399Z,52.69
2022-08-08T06:03:38.558Z,52.57
2022-08-08T06:08:53.198Z,53.22
2022-08-08T06:13:52.943Z,53.26
2022-08-08T06:19:00.184Z,54.10
2022-08-08T06:24:13.993Z,54.54
2022-08-08T06:29:49.345Z,54.46
2022-08-08T06:34:27.391Z,54.31
2022-08-08T06:39:33.346Z,54.13
2022-08-08T06:44:42.243Z,53.80
2022-08-08T06:49:56.173Z,54.26
2022-08-08T06:54:52.015Z,54.32
2022-08-08T07:00:10.218Z,54.01
2022-08-08T07:05:06.476Z,54.10
2022-08-08T07:10:13.669Z,54.15
2022-08-08T07:15:32.529Z,54.89
2022-08-08T07:20:28.400Z,54.04
2022-08-08T07:25:35.310Z,54.55
2022-08-08T07:30:42.494Z,54.19
2022-08-08T07:35:51.258Z,55.22
2022-08-08T07:40:56.907Z,55.95
2022-08-08T07:46:17.645Z,55.21
2022-08-08T07:51:24.355Z,55.26
2022-08-08T07:56:36.436Z,55.40
2022-08-08T08:01:27.084Z,54.39
2022-08-08T08:06:33.063Z,53.67
2022-08-08T08:11:52.476Z,54.20
2022-08-08T08:16:48.515Z,54.58
2022-08-08T08:22:00.674Z,54.75
2022-08-08T08:27:02.825Z,54.72
2022-08-08T08:32:09.299Z,54.28
2022-08-08T08:37:16.500Z,54.86
2022-08-08T08:42:31.593Z,55.69
2022-08-08T08:47:33.766Z,55.56
2022-08-08T08:52:38.167Z,55.69
2022-08-08T08:57:45.371Z,55.48
2022-08-08T09:02:52.566Z,55.58
2022-08-08T09:08:12.799Z,55.32
2022-08-08T09:13:06.972Z,54.72
2022-08-08T09:18:14.219Z,54.55
2022-08-08T09:23:25.739Z,55.29
2022-08-08T09:28:37.437Z,54.23
2022-08-08T09:34:15.851Z,54.16
2022-08-08T09:38:53.110Z,54.17
2022-08-08T09:44:06.236Z,55.93
2022-08-08T09:48:57.338Z,55.35
2022-08-08T09:54:09.661Z,55.54
2022-08-08T09:59:40.322Z,55.30
2022-08-08T10:04:38.533Z,55.30
2022-08-08T10:09:26.189Z,54.49
2022-08-08T10:14:38.193Z,53.65
2022-08-08T10:19:46.309Z,53.75
2022-08-08T10:24:48.048Z,53.78
2022-08-08T10:29:58.759Z,52.88
2022-08-08T10:35:02.500Z,52.35
2022-08-08T10:40:09.780Z,52.43
2022-08-08T10:45:16.940Z,51.40
2022-08-08T10:50:24.124Z,51.83
2022-08-08T10:55:41.700Z,51.07
2022-08-08T11:00:53.443Z,50.95
2022-08-08T11:05:45.729Z,49.55
2022-08-08T11:10:52.985Z,49.20
2022-08-08T11:16:01.404Z,48.80
2022-08-08T11:21:09.800Z,48.64
2022-08-08T11:26:18.734Z,48.10
2022-08-08T11:31:21.804Z,47.95
2022-08-08T11:36:29.560Z,47.65
2022-08-08T11:41:36.193Z,48.49
2022-08-08T11:46:43.380Z,48.16
2022-08-08T11:51:52.277Z,47.99
2022-08-08T11:56:58.488Z,47.03
2022-08-08T12:02:30.449Z,47.12
2022-08-08T12:07:16.730Z,47.37
2022-08-08T12:12:19.482Z,47.32
2022-08-08T12:17:26.719Z,46.81
2022-08-08T12:22:44.803Z,46.29
2022-08-08T12:27:45.548Z,46.70
2022-08-08T12:32:48.428Z,46.31
2022-08-08T12:38:02.009Z,46.33
2022-08-08T12:43:03.791Z,45.82
2022-08-08T12:48:35.867Z,45.52
2022-08-08T12:53:17.185Z,46.29
2022-08-08T12:58:24.458Z,47.00
2022-08-08T13:03:33.520Z,45.75
2022-08-08T13:08:38.839Z,44.96
2022-08-08T13:13:45.995Z,45.14
2022-08-08T13:18:58.236Z,45.18
2022-08-08T13:24:00.375Z,44.71
2022-08-08T13:29:07.566Z,44.49
2022-08-08T13:34:14.792Z,44.31
2022-08-08T13:39:22.102Z,44.15
2022-08-08T13:44:29.256Z,44.95
2022-08-08T13:50:36.015Z,45.58
2022-08-08T13:54:44.207Z,44.50
2022-08-08T13:59:50.791Z,44.82
2022-08-08T14:04:58.012Z,45.18
2022-08-08T14:10:11.788Z,45.31
2022-08-08T14:15:12.453Z,45.31
2022-08-08T14:20:56.436Z,45.60
2022-08-08T14:25:26.912Z,45.36
2022-08-08T14:30:34.103Z,43.92
2022-08-08T14:35:41.330Z,44.28
2022-08-08T14:40:48.546Z,44.87
2022-08-08T14:46:02.963Z,43.92
2022-08-08T14:51:02.940Z,43.86
2022-08-08T14:56:10.147Z,44.50
2022-08-08T15:01:23.767Z,44.78
2022-08-08T15:06:24.953Z,43.88
2022-08-08T15:11:43.092Z,44.32
2022-08-08T15:16:39.385Z,44.48
2022-08-08T15:21:46.658Z,44.61
2022-08-08T15:26:53.928Z,44.53
2022-08-08T15:32:19.947Z,44.40
2022-08-08T15:37:08.326Z,44.59
2022-08-08T15:42:31.238Z,44.42
2022-08-08T15:47:22.875Z,44.46
2022-08-08T15:52:31.309Z,44.51
2022-08-08T15:57:39.900Z,44.35
2022-08-08T16:02:51.188Z,44.25
2022-08-08T16:07:53.837Z,44.07
2022-08-08T16:13:15.850Z,44.07
2022-08-08T16:18:12.102Z,42.20
2022-08-08T16:23:16.090Z,43.72
2022-08-08T16:28:33.957Z,43.98
2022-08-08T16:33:39.412Z,43.20
2022-08-08T16:38:44.712Z,43.70
2022-08-08T16:43:49.105Z,43.83
2022-08-08T16:48:51.308Z,43.75
2022-08-08T16:55:05.725Z,43.76
2022-08-08T16:59:05.786Z,43.76
2022-08-08T17:04:13.063Z,43.73
2022-08-08T17:09:23.839Z,43.77
2022-08-08T17:14:34.102Z,43.77
2022-08-08T17:19:40.894Z,43.73
2022-08-08T17:24:43.727Z,43.68
2022-08-08T17:29:56.738Z,43.68
2022-08-08T17:35:53.858Z,43.69
2022-08-08T17:40:12.848Z,43.67
2022-08-08T17:45:14.187Z,43.70
2022-08-08T17:50:19.767Z,43.65
2022-08-08T17:56:05.884Z,43.71
2022-08-08T18:00:39.043Z,43.71
2022-08-08T18:05:48.064Z,43.45
2022-08-08T18:10:48.669Z,43.16
2022-08-08T18:16:04.294Z,42.96
2022-08-08T18:21:03.155Z,42.55
2022-08-08T18:26:10.258Z,42.48
2022-08-08T18:31:17.497Z,42.22
2022-08-08T18:36:25.473Z,42.33
2022-08-08T18:41:51.806Z,42.00
2022-08-08T18:46:54.874Z,41.88
2022-08-08T18:51:53.734Z,42.09
2022-08-08T18:56:53.695Z,41.76
2022-08-08T19:02:27.394Z,41.70
2022-08-08T19:07:08.106Z,41.74
2022-08-08T19:12:15.282Z,41.73
2022-08-08T19:17:28.764Z,41.92
2022-08-08T19:22:29.696Z,42.44
2022-08-08T19:27:55.748Z,42.47
2022-08-08T19:32:44.058Z,42.63
2022-08-08T19:37:55.367Z,42.74
2022-08-08T19:42:58.533Z,43.12
2022-08-08T19:48:05.810Z,43.64
2022-08-08T19:53:46.754Z,43.27
2022-08-08T19:58:20.322Z,43.24
2022-08-08T20:04:01.263Z,43.28
2022-08-08T20:08:34.931Z,42.93
2022-08-08T20:14:13.905Z,43.05
2022-08-08T20:18:52.655Z,42.85
2022-08-08T20:23:58.201Z,42.89
2022-08-08T20:29:04.038Z,43.66
2022-08-08T20:34:29.166Z,43.80
2022-08-08T20:39:18.465Z,43.24
2022-08-08T20:44:25.646Z,43.44
2022-08-08T20:49:39.971Z,43.91
2022-08-08T20:54:40.037Z,43.63
2022-08-08T20:59:47.278Z,43.58
2022-08-08T21:04:54.468Z,44.30
2022-08-08T21:10:12.473Z,44.34
2022-08-08T21:15:09.389Z,44.81
2022-08-08T21:20:16.108Z,45.09
2022-08-08T21:25:23.339Z,45.14
2022-08-08T21:30:30.594Z,45.20
2022-08-08T21:36:17.152Z,45.24
2022-08-08T21:40:55.658Z,45.49
2022-08-08T21:48:20.297Z,45.30
2022-08-08T21:50:59.541Z,44.94
2022-08-08T21:56:26.642Z,44.76
2022-08-08T22:01:27.787Z,44.48
2022-08-08T22:06:30.847Z,43.95
2022-08-08T22:11:58.837Z,43.66
2022-08-08T22:16:35.667Z,43.39
2022-08-08T22:21:42.823Z,43.17
2022-08-08T22:27:01.232Z,43.50
2022-08-08T22:32:02.189Z,43.18
2022-08-08T22:37:05.163Z,43.27
2022-08-08T22:42:12.359Z,43.37
2022-08-08T22:47:19.619Z,43.58
2022-08-08T22:52:33.719Z,43.43
2022-08-08T22:57:44.117Z,43.50
2022-08-08T23:02:41.257Z,43.97
2022-08-08T23:07:57.196Z,43.61
2022-08-08T23:12:56.125Z,43.79
2022-08-08T23:18:02.793Z,43.72
2022-08-08T23:23:09.975Z,43.96
2022-08-08T23:28:17.684Z,43.76
2022-08-08T23:34:17.563Z,44.30
2022-08-08T23:38:31.548Z,44.21
2022-08-08T23:43:45.832Z,44.63
2022-08-08T23:49:00.077Z,44.49
2022-08-08T23:54:05.760Z,44.67
2022-08-08T23:59:00.476Z,44.72
